14:47
Airports
History
Links
Donate
Help keep this website running!
PayPal
Bitcoin
This page is community maintained. The information is intended for PC simulator navigation or reference.
Always use approved charts for navigation.
TN03
Decker Farm
Decker Farm (TN03)
Jonesborough, Tennessee, United States (37659)
4
Lat/Lng:36° 11' 46.38" N / 82° 29' 13.52" W
36.196218 / -82.487088
Elevation:1505'ft / 459mMSL
ID / ICAO:TN03
Runways:1
Longest:08-26
Grass 483m / 1,584ft
Nearby Weather13:53 GMT 2017-12-18
Nearby weather at KTRI, Tri-cities Rgnl Tn/va located 19.8 nautical miles from TN03
Altimeter: 30.18
Visibility: 0.8 statute miles
Wind: 0 knots (from 000°)
Temp: 5°c / 41°f
Humidity: 100.0%

METAR: KTRI 181353Z 00000KT 3/4SM -DZ BR BKN002 OVC006 05/05 A3018 RMK AO2 SLP216 P0000 T00500050

(Powered by phpweather)
Nearby VORs <50NM
Nearby NDBs
Runway 08 / 26
Dimensions:482.8 x 22.9m 1584' x 75'ft
Surface:Grass
Runway 08 [A]Runway 26 [B]
Heading:075°TH 255°TH
Lat:
Lng:
36° 11' 44.47"N
82° 29' 23.02"W
36° 11' 48.29"N
82° 29' 4.02"W
User Notes and Comments
36° 11' 46.38" N / 82° 29' 13.52" W
Distance To
Airport ID:
Nearby Airports
4 Mc Afee STOL Patch 13.3 NM
TN62 NNE 23°
(U) Johnson City 15.2 NM
0A4 NE 40°
(R) Pensinger 16.7 NM
TN99 WNW 294°
(U) Greeneville-greene County Muni 18.1 NM
KGCY W 269°
(C) Tri-cities Rgnl Tn/va 19.8 NM
KTRI ( WX ) NNE 12°
(U) Elizabethton Muni 21.2 NM
0A9 NE 55°
(R) Indian Springs 23.7 NM
3TN0 N
VFR Chart
Flight Planning at SkyVector.com